Time;durP1;ratioP1;P1;durP2;ratioP2;P2;SDS_P1;SDS_P2;PMS_P1;PMS_P2;Temp;Humidity;BMP_temperature;BMP_pressure;BME280_temperature;BME280_humidity;BME280_pressure;Samples;Min_cycle;Max_cycle;Signal;HPM_P1;HPM_P2
2021/03/22 00:02:09;;;;;;;1.65;1.63;;;;;;;0.85;100.00;97814.88;5073296;28;20043;-89
2021/03/22 00:04:34;;;;;;;1.25;1.25;;;;;;;0.88;100.00;97819.53;5072710;28;20431;-88
2021/03/22 00:07:00;;;;;;;0.80;0.80;;;;;;;0.65;100.00;97813.78;5072575;28;20036;-89
2021/03/22 00:09:26;;;;;;;0.47;0.47;;;;;;;0.81;100.00;97812.19;5072744;28;20488;-88
2021/03/22 00:11:51;;;;;;;0.47;0.47;;;;;;;0.95;100.00;97802.44;5072841;28;20028;-88
2021/03/22 00:14:17;;;;;;;1.25;1.15;;;;;;;1.07;100.00;97802.00;5058894;28;20021;-88
2021/03/22 00:16:42;;;;;;;0.68;0.68;;;;;;;1.13;100.00;97786.81;5052643;28;20029;-88
2021/03/22 00:19:08;;;;;;;0.63;0.63;;;;;;;1.20;100.00;97786.78;5069172;28;20067;-87
2021/03/22 00:21:33;;;;;;;2.70;2.50;;;;;;;1.19;100.00;97782.50;5068928;28;20536;-88
2021/03/22 00:23:59;;;;;;;0.75;0.75;;;;;;;1.12;100.00;97785.25;5052374;28;20480;-88
2021/03/22 00:26:25;;;;;;;0.38;0.38;;;;;;;0.94;100.00;97776.41;5052528;28;20508;-89
2021/03/22 00:28:50;;;;;;;2.05;1.95;;;;;;;1.00;100.00;97778.31;5052368;28;20491;-88
2021/03/22 00:31:16;;;;;;;0.52;0.50;;;;;;;1.00;100.00;97772.88;5069187;28;20025;-90
2021/03/22 00:33:42;;;;;;;0.38;0.38;;;;;;;1.01;100.00;97771.72;5052274;28;20484;-87
2021/03/22 00:36:09;;;;;;;0.43;0.43;;;;;;;0.59;100.00;97710.13;5052259;28;20032;-89
2021/03/22 00:38:35;;;;;;;2.22;2.05;;;;;;;0.80;100.00;97739.16;5052870;28;20032;-87
2021/03/22 00:41:02;;;;;;;1.25;1.17;;;;;;;0.67;100.00;97716.28;5052276;28;20029;-88
2021/03/22 00:43:27;;;;;;;1.23;1.23;;;;;;;0.96;100.00;97761.25;5052713;28;20116;-90
2021/03/22 00:45:56;;;;;;;1.13;1.05;;;;;;;0.93;100.00;97737.56;5053215;28;20056;-90
2021/03/22 00:48:23;;;;;;;0.20;0.20;;;;;;;1.00;100.00;97751.13;5052452;28;20025;-90
2021/03/22 00:50:48;;;;;;;4.93;3.53;;;;;;;0.88;100.00;97729.03;5069708;28;20033;-90
2021/03/22 00:53:15;;;;;;;1.20;1.20;;;;;;;1.00;100.00;97747.63;5053012;28;20078;-89
2021/03/22 00:55:42;;;;;;;0.30;0.30;;;;;;;0.46;100.00;97665.53;5052067;28;20038;-88
2021/03/22 00:58:08;;;;;;;1.08;1.00;;;;;;;1.06;100.00;97743.31;5054032;28;20052;-88
2021/03/22 01:00:38;;;;;;;0.55;0.55;;;;;;;0.99;100.00;97738.69;5072330;28;20028;-88
2021/03/22 01:03:06;;;;;;;0.20;0.20;;;;;;;0.88;100.00;97699.91;5072289;28;20469;-88
2021/03/22 01:05:32;;;;;;;0.75;0.75;;;;;;;1.15;100.00;97732.75;5071984;28;20036;-89
2021/03/22 01:07:58;;;;;;;11.88;3.35;;;;;;;1.17;100.00;97733.94;5071943;28;20039;-88
2021/03/22 01:10:32;;;;;;;2.60;2.47;;;;;;;0.90;100.00;97688.63;5071933;28;20037;-90
2021/03/22 01:12:58;;;;;;;3.10;2.40;;;;;;;0.97;100.00;97730.13;5072075;28;20373;-89
2021/03/22 01:15:24;;;;;;;0.70;0.70;;;;;;;1.01;100.00;97692.84;5071936;28;20054;-89
2021/03/22 01:17:51;;;;;;;1.77;1.67;;;;;;;1.08;100.00;97700.97;5072346;28;20024;-88
2021/03/22 01:20:25;;;;;;;2.13;1.90;;;;;;;1.05;100.00;97709.91;5074717;28;20139;-88
2021/03/22 01:22:51;;;;;;;0.50;0.50;;;;;;;1.08;100.00;97698.25;5092856;28;20483;-87
2021/03/22 01:25:16;;;;;;;0.93;0.93;;;;;;;1.05;100.00;97685.41;5075582;28;20024;-89
2021/03/22 01:27:42;;;;;;;0.68;0.50;;;;;;;1.23;100.00;97686.09;5076488;28;20086;-88
2021/03/22 01:30:21;;;;;;;0.40;0.40;;;;;;;1.07;100.00;97664.06;5076038;28;20481;-86
2021/03/22 01:32:47;;;;;;;1.75;0.93;;;;;;;1.17;100.00;97655.03;5075832;28;20119;-87
2021/03/22 01:35:14;;;;;;;3.75;1.48;;;;;;;0.99;100.00;97629.91;5070159;28;20024;-88
2021/03/22 01:37:39;;;;;;;1.02;1.02;;;;;;;1.16;100.00;97671.75;5055633;28;20029;-87
2021/03/22 01:40:16;;;;;;;0.70;0.70;;;;;;;1.15;100.00;97673.69;5055899;28;20171;-87
2021/03/22 01:43:23;;;;;;;0.40;0.40;;;;;;;0.72;100.00;97607.19;5055493;28;20033;-87
2021/03/22 01:45:48;;;;;;;0.83;0.83;;;;;;;0.97;100.00;97669.53;5052372;28;20040;-86
2021/03/22 01:48:14;;;;;;;1.00;1.00;;;;;;;0.91;100.00;97660.25;5055510;28;20275;-88
2021/03/22 01:50:39;;;;;;;0.40;0.40;;;;;;;0.94;100.00;97671.13;5055432;28;20037;-87
2021/03/22 01:53:05;;;;;;;0.55;0.55;;;;;;;1.05;100.00;97662.88;5055303;28;20028;-88
2021/03/22 01:55:30;;;;;;;0.30;0.30;;;;;;;0.97;100.00;97659.44;5055544;28;20116;-86
2021/03/22 01:57:56;;;;;;;1.08;1.08;;;;;;;1.03;100.00;97668.72;5055299;28;20025;-88
2021/03/22 02:00:33;;;;;;;0.50;0.50;;;;;;;0.72;100.00;97669.69;5067311;28;20035;-88
2021/03/22 02:03:13;;;;;;;0.20;0.20;;;;;;;0.59;100.00;97620.44;5075548;28;20507;-88
2021/03/22 02:05:43;;;;;;;0.32;0.32;;;;;;;0.86;100.00;97661.44;5075613;28;20123;-88
2021/03/22 02:08:11;;;;;;;0.30;0.30;;;;;;;0.66;100.00;97623.09;5075502;28;20127;-88
2021/03/22 02:10:38;;;;;;;;;;;;;;;0.97;100.00;97654.00;5075404;28;20029;-87
2021/03/22 02:13:04;;;;;;;0.30;0.30;;;;;;;0.64;100.00;97605.66;5074939;28;20432;-86
2021/03/22 02:15:30;;;;;;;0.40;0.40;;;;;;;0.55;100.00;97603.38;5075053;28;20495;-87
2021/03/22 02:17:58;;;;;;;0.20;0.20;;;;;;;0.66;100.00;97609.50;5075281;28;20032;-86
2021/03/22 02:20:59;;;;;;;0.30;0.30;;;;;;;0.67;100.00;97611.06;5074573;28;20059;-86
2021/03/22 02:23:58;;;;;;;0.30;0.30;;;;;;;0.70;100.00;97607.56;5075232;28;20027;-87
2021/03/22 02:26:26;;;;;;;0.50;0.50;;;;;;;0.67;100.00;97607.56;5074749;28;20029;-87
2021/03/22 02:29:03;;;;;;;0.70;0.70;;;;;;;0.85;100.00;97632.72;5074527;28;20024;-87
2021/03/22 02:31:44;;;;;;;0.60;0.60;;;;;;;0.82;100.00;97626.13;5074425;28;20101;-86
2021/03/22 02:34:26;;;;;;;0.30;0.30;;;;;;;0.99;100.00;97650.88;5075082;28;20460;-87
2021/03/22 02:37:09;;;;;;;0.35;0.35;;;;;;;0.85;100.00;97651.75;5075141;28;20036;-86
2021/03/22 02:39:40;;;;;;;0.32;0.32;;;;;;;0.84;100.00;97644.00;5075026;28;20474;-86
2021/03/22 02:42:09;;;;;;;2.65;2.45;;;;;;;0.58;100.00;97582.78;5074865;28;20043;-86
2021/03/22 02:44:36;;;;;;;;;;;;;;;0.87;100.00;97641.25;5074903;28;20024;-88
2021/03/22 02:47:03;;;;;;;1.03;1.03;;;;;;;0.86;100.00;97647.06;5074380;28;19919;-89
2021/03/22 02:49:34;;;;;;;0.35;0.35;;;;;;;0.80;100.00;97644.00;5075008;28;20055;-88
2021/03/22 02:52:36;;;;;;;0.30;0.30;;;;;;;0.80;100.00;97638.56;5074630;28;20033;-87
2021/03/22 02:55:02;;;;;;;0.68;0.68;;;;;;;0.52;100.00;97590.59;5073796;28;20480;-88
2021/03/22 02:57:37;;;;;;;0.30;0.30;;;;;;;0.71;100.00;97660.00;5072755;28;20031;-89
2021/03/22 03:00:11;;;;;;;0.55;0.55;;;;;;;0.72;100.00;97626.97;5073547;28;20029;-89
2021/03/22 03:02:40;;;;;;;1.15;1.05;;;;;;;0.84;100.00;97646.72;5073982;28;20537;-87
2021/03/22 03:05:12;;;;;;;0.30;0.30;;;;;;;0.82;100.00;97644.41;5074013;28;20032;-87
2021/03/22 03:07:38;;;;;;;0.65;0.65;;;;;;;0.70;100.00;97612.22;5073962;28;20025;-86
2021/03/22 03:10:06;;;;;;;0.30;0.30;;;;;;;0.63;100.00;97609.53;5074583;28;20033;-88
2021/03/22 03:12:31;;;;;;;;;;;;;;;0.87;100.00;97632.31;5074302;28;20085;-87
2021/03/22 03:14:57;;;;;;;0.50;0.50;;;;;;;0.68;100.00;97622.72;5073780;28;19916;-87
2021/03/22 03:17:23;;;;;;;0.30;0.30;;;;;;;0.67;100.00;97597.47;5073732;28;20028;-88
2021/03/22 03:19:50;;;;;;;0.40;0.40;;;;;;;0.42;100.00;97558.84;5073566;28;20037;-87
2021/03/22 03:22:17;;;;;;;0.70;0.68;;;;;;;0.89;100.00;97627.25;5074125;28;20120;-88
2021/03/22 03:24:42;;;;;;;0.40;0.40;;;;;;;0.75;100.00;97628.13;5073569;28;20028;-88
2021/03/22 03:27:09;;;;;;;1.05;1.05;;;;;;;0.31;100.00;97569.72;5073347;28;20032;-88
2021/03/22 03:29:36;;;;;;;0.25;0.25;;;;;;;0.66;100.00;97627.78;5073551;28;20115;-87
2021/03/22 03:32:04;;;;;;;0.20;0.20;;;;;;;0.74;100.00;97619.19;5073529;28;20059;-87
2021/03/22 03:34:30;;;;;;;0.30;0.30;;;;;;;0.64;100.00;97617.31;5090140;28;20060;-88
2021/03/22 03:36:55;;;;;;;0.47;0.47;;;;;;;0.69;100.00;97627.75;5073360;28;20032;-87
2021/03/22 03:39:21;;;;;;;0.30;0.30;;;;;;;0.59;100.00;97625.88;5090696;28;20031;-87
2021/03/22 03:41:47;;;;;;;0.28;0.28;;;;;;;0.49;100.00;97599.53;5089753;28;20451;-87
2021/03/22 03:44:13;;;;;;;0.68;0.55;;;;;;;0.63;100.00;97623.91;5090073;28;20110;-86
2021/03/22 03:46:39;;;;;;;0.45;0.40;;;;;;;0.27;100.00;97571.69;5090142;28;20202;-87
2021/03/22 03:49:06;;;;;;;1.10;1.05;;;;;;;0.26;100.00;97580.25;5072959;28;20028;-87
2021/03/22 03:51:32;;;;;;;1.35;1.30;;;;;;;0.17;100.00;97566.34;5089927;28;20028;-86
2021/03/22 03:53:59;;;;;;;1.48;1.40;;;;;;;0.64;100.00;97630.91;5073109;28;20035;-88
2021/03/22 03:56:26;;;;;;;0.30;0.30;;;;;;;0.62;100.00;97618.88;5072920;28;20070;-87
2021/03/22 03:58:51;;;;;;;0.30;0.30;;;;;;;0.52;100.00;97587.09;5090020;28;20464;-86
2021/03/22 04:01:17;;;;;;;0.30;0.30;;;;;;;0.32;100.00;97560.41;5089628;28;20082;-85
2021/03/22 04:03:42;;;;;;;0.30;0.30;;;;;;;0.65;100.00;97621.59;5072679;28;20411;-86
2021/03/22 04:06:08;;;;;;;0.30;0.30;;;;;;;0.36;100.00;97579.44;5089355;28;20063;-85
2021/03/22 04:08:36;;;;;;;0.60;0.60;;;;;;;0.38;100.00;97593.38;5089748;28;20051;-85
2021/03/22 04:11:04;;;;;;;1.23;1.23;;;;;;;0.35;100.00;97564.31;5089610;28;20376;-86
2021/03/22 04:13:32;;;;;;;0.28;0.28;;;;;;;0.67;100.00;97632.03;5072718;28;20039;-86
2021/03/22 04:15:58;;;;;;;0.30;0.30;;;;;;;0.50;100.00;97597.59;5072286;28;20070;-86
2021/03/22 04:18:23;;;;;;;1.08;1.08;;;;;;;0.49;100.00;97585.16;5089256;28;20078;-87
2021/03/22 04:20:49;;;;;;;1.35;1.35;;;;;;;0.73;100.00;97604.03;5088896;28;20048;-86
2021/03/22 04:23:15;;;;;;;0.60;0.60;;;;;;;0.71;100.00;97600.19;5072402;28;20060;-85
2021/03/22 04:25:41;;;;;;;6.85;4.47;;;;;;;0.61;100.00;97596.34;5089502;28;20032;-87
2021/03/22 04:28:06;;;;;;;1.83;1.73;;;;;;;0.41;100.00;97584.44;5089179;28;20034;-86
2021/03/22 04:30:32;;;;;;;0.90;0.90;;;;;;;0.66;100.00;97592.47;5089858;28;20066;-86
2021/03/22 04:32:57;;;;;;;0.90;0.90;;;;;;;0.69;100.00;97588.94;5089839;28;20107;-86
2021/03/22 04:35:25;;;;;;;1.08;0.60;;;;;;;0.90;100.00;97613.28;5089430;28;20033;-87
2021/03/22 04:37:51;;;;;;;0.20;0.20;;;;;;;0.77;100.00;97569.47;5072328;28;20116;-87
2021/03/22 04:40:23;;;;;;;0.30;0.30;;;;;;;1.03;100.00;97586.34;5089637;28;20098;-87
2021/03/22 04:42:49;;;;;;;0.30;0.30;;;;;;;1.04;100.00;97587.91;5089125;28;20032;-86
2021/03/22 04:45:17;;;;;;;0.40;0.40;;;;;;;0.98;100.00;97576.69;5089226;28;20039;-89
2021/03/22 04:47:43;;;;;;;0.20;0.20;;;;;;;0.99;100.00;97567.34;5089085;28;20032;-87
2021/03/22 04:50:09;;;;;;;0.30;0.30;;;;;;;1.19;100.00;97589.34;5089150;28;20480;-86
2021/03/22 04:52:35;;;;;;;0.20;0.20;;;;;;;1.28;100.00;97597.03;5088899;28;20420;-87
2021/03/22 04:55:00;;;;;;;0.20;0.20;;;;;;;1.05;100.00;97557.59;5087949;28;20031;-88
2021/03/22 04:57:30;;;;;;;0.20;0.20;;;;;;;1.15;100.00;97585.88;5072105;28;20039;-88
2021/03/22 04:59:56;;;;;;;0.28;0.28;;;;;;;1.37;100.00;97614.47;5087800;28;20127;-88
2021/03/22 05:02:22;;;;;;;0.22;0.22;;;;;;;1.17;100.00;97564.50;5072266;28;20029;-88
2021/03/22 05:04:48;;;;;;;0.20;0.20;;;;;;;1.04;100.00;97530.78;5071783;28;20036;-86
2021/03/22 05:07:15;;;;;;;0.20;0.20;;;;;;;1.39;100.00;97603.94;5072048;28;20020;-85
2021/03/22 05:09:41;;;;;;;0.30;0.30;;;;;;;1.42;100.00;97605.88;5071755;28;20549;-86
2021/03/22 05:12:08;;;;;;;0.22;0.22;;;;;;;1.47;100.00;97604.66;5071971;28;20032;-84
2021/03/22 05:14:33;;;;;;;0.47;0.47;;;;;;;1.58;100.00;97594.44;5072314;28;20052;-86
2021/03/22 05:16:59;;;;;;;0.32;0.32;;;;;;;1.67;100.00;97588.53;5071629;28;20515;-85
2021/03/22 05:19:24;;;;;;;0.65;0.65;;;;;;;1.54;100.00;97564.53;5071765;28;20032;-85
2021/03/22 05:21:50;;;;;;;0.20;0.20;;;;;;;1.72;100.00;97582.63;5071498;28;20493;-86
2021/03/22 05:24:16;;;;;;;0.30;0.30;;;;;;;1.47;100.00;97552.94;5071896;28;20530;-85
2021/03/22 05:26:41;;;;;;;0.30;0.30;;;;;;;1.84;100.00;97596.50;5071576;28;20028;-85
2021/03/22 05:29:07;;;;;;;2.13;2.03;;;;;;;1.63;100.00;97570.25;5072029;28;20028;-86
2021/03/22 05:31:34;;;;;;;0.38;0.38;;;;;;;1.96;100.00;97595.22;5072008;28;20036;-85
2021/03/22 05:34:00;;;;;;;0.65;0.65;;;;;;;2.17;100.00;97575.88;5071461;28;20063;-86
2021/03/22 05:36:25;;;;;;;0.43;0.43;;;;;;;2.39;100.00;97598.97;5071502;28;20036;-85
2021/03/22 05:38:51;;;;;;;2.28;2.08;;;;;;;2.65;100.00;97585.78;5071595;28;20024;-85
2021/03/22 05:41:25;;;;;;;0.20;0.20;;;;;;;2.98;100.00;97595.03;5071519;28;20077;-85
2021/03/22 05:43:54;;;;;;;1.17;0.52;;;;;;;3.06;98.56;97597.25;5071869;28;20082;-86
2021/03/22 08:13:48;;;;;;;0.20;0.20;;;;;;;8.00;69.63;97573.44;5073098;28;20056;-78
2021/03/22 08:16:28;;;;;;;0.22;0.22;;;;;;;8.21;68.87;97532.63;5072655;28;20044;-77
2021/03/22 08:19:22;;;;;;;0.40;0.40;;;;;;;8.45;68.67;97583.25;5073304;28;20027;-79
2021/03/22 08:22:10;;;;;;;0.20;0.20;;;;;;;8.09;69.62;97573.50;5064173;28;20147;-78
2021/03/22 08:24:57;;;;;;;;;;;;;;;8.21;70.08;97579.38;5063252;28;20056;-78
2021/03/22 08:27:24;;;;;;;;;;;;;;;8.04;70.74;97587.06;5052794;28;19927;-78
2021/03/22 08:30:10;;;;;;;2.13;1.20;;;;;;;8.34;70.67;97583.66;5051797;28;19919;-78
2021/03/22 08:33:03;;;;;;;1.23;1.23;;;;;;;8.47;69.55;97580.84;5051906;28;20033;-79
2021/03/22 08:35:37;;;;;;;13.77;10.85;;;;;;;8.65;69.24;97575.44;5051805;28;20123;-78
2021/03/22 08:38:21;;;;;;;4.30;4.00;;;;;;;8.82;67.44;97521.66;5051759;28;20068;-79
2021/03/22 08:40:53;;;;;;;0.93;0.93;;;;;;;9.33;66.69;97557.81;5052360;28;20033;-78
2021/03/22 08:43:36;;;;;;;1.45;1.33;;;;;;;9.68;65.64;97577.63;5051768;28;20033;-78
2021/03/22 08:46:23;;;;;;;6.70;2.15;;;;;;;9.74;64.78;97575.78;5051908;28;20032;-78
2021/03/22 08:48:49;;;;;;;3.87;3.53;;;;;;;9.65;64.93;97573.00;5052079;28;20040;-79
2021/03/22 08:51:25;;;;;;;0.40;0.40;;;;;;;9.10;66.67;97555.56;5068414;28;20275;-79
2021/03/22 08:53:53;;;;;;;2.03;1.92;;;;;;;9.74;64.56;97545.44;5051679;28;20519;-78
2021/03/22 08:56:42;;;;;;;2.08;1.98;;;;;;;9.96;63.52;97564.59;5051503;28;20090;-79
2021/03/22 08:59:10;;;;;;;2.42;2.33;;;;;;;9.70;64.07;97569.66;5052192;28;20025;-78
2021/03/22 09:01:39;;;;;;;1.77;1.67;;;;;;;9.43;65.39;97574.34;5068788;28;20484;-79
2021/03/22 09:04:21;;;;;;;1.83;1.73;;;;;;;9.23;65.98;97566.47;5052043;28;20094;-77
2021/03/22 09:07:01;;;;;;;3.45;3.25;;;;;;;9.13;66.41;97564.94;5052350;28;20036;-79
2021/03/22 09:09:33;;;;;;;1.50;1.45;;;;;;;8.69;67.91;97562.28;5051813;28;20447;-80
2021/03/22 09:12:07;;;;;;;5.78;2.50;;;;;;;9.30;67.36;97549.66;5051902;28;20128;-78
2021/03/22 09:14:39;;;;;;;2.92;1.83;;;;;;;9.51;66.65;97570.84;5051422;28;20048;-78
2021/03/22 09:17:32;;;;;;;1.45;1.20;;;;;;;10.01;64.56;97521.81;5051828;28;20037;-79
2021/03/22 09:20:52;;;;;;;1.38;1.33;;;;;;;10.90;61.78;97541.47;5051724;28;20029;-78
2021/03/22 09:23:29;;;;;;;1.83;1.73;;;;;;;11.31;59.73;97569.53;5068186;28;20033;-78
2021/03/22 09:26:06;;;;;;;1.70;1.60;;;;;;;11.11;60.82;97500.19;5051677;28;20025;-78
2021/03/22 09:28:36;;;;;;;1.80;1.70;;;;;;;10.96;60.14;97505.66;5051590;28;20029;-78
2021/03/22 09:31:11;;;;;;;0.60;0.60;;;;;;;11.32;60.23;97532.34;5052163;28;20079;-79
2021/03/22 09:34:00;;;;;;;0.80;0.80;;;;;;;11.60;59.45;97546.75;5051629;28;20040;-79
2021/03/22 09:36:30;;;;;;;0.65;0.65;;;;;;;11.19;60.41;97512.44;5051990;28;20039;-80
2021/03/22 09:38:57;;;;;;;6.47;1.45;;;;;;;11.34;59.94;97511.28;5051561;28;20035;-78
2021/03/22 09:42:00;;;;;;;1.45;0.55;;;;;;;11.64;59.33;97539.03;5054831;28;20025;-79
2021/03/22 09:44:33;;;;;;;3.17;2.90;;;;;;;11.99;58.72;97562.19;5055737;28;20031;-79
2021/03/22 09:47:14;;;;;;;4.00;3.70;;;;;;;12.62;56.92;97532.34;5055563;28;20029;-78
2021/03/22 09:49:57;;;;;;;2.05;1.95;;;;;;;12.92;55.89;97539.41;5060937;28;20032;-79
2021/03/22 09:52:52;;;;;;;1.25;1.25;;;;;;;12.55;56.55;97541.81;5092109;28;20036;-78
2021/03/22 09:55:27;;;;;;;18.95;13.63;;;;;;;12.07;57.11;97498.91;5049026;28;20033;-80
2021/03/22 09:57:55;;;;;;;3.65;3.45;;;;;;;11.34;59.25;97519.56;5075775;28;20043;-79
2021/03/22 10:00:33;;;;;;;;;;;;;;;11.40;59.59;97523.22;5092446;28;20036;-79
2021/03/22 10:03:00;;;;;;;3.13;2.80;;;;;;;11.09;60.55;97508.94;5092625;28;20011;-80
2021/03/22 10:05:52;;;;;;;26.73;17.13;;;;;;;11.09;61.22;97500.66;5091975;28;20037;-81
2021/03/22 10:08:39;;;;;;;7.00;5.75;;;;;;;11.40;60.18;97522.44;5075098;28;20289;-79
2021/03/22 10:11:18;;;;;;;0.98;0.98;;;;;;;11.24;60.61;97515.34;5075501;28;20024;-78
2021/03/22 10:13:45;;;;;;;0.52;0.52;;;;;;;10.69;61.66;97481.66;5091324;28;20036;-79
2021/03/22 10:16:17;;;;;;;2.80;1.65;;;;;;;11.23;61.07;97491.69;5092151;28;20476;-79
2021/03/22 10:18:50;;;;;;;0.63;0.63;;;;;;;11.75;59.29;97517.94;5091448;28;20033;-79
2021/03/22 10:21:20;;;;;;;0.60;0.60;;;;;;;11.77;59.37;97498.84;5091249;28;20451;-79
2021/03/22 10:23:57;;;;;;;1.20;1.17;;;;;;;11.57;58.84;97523.59;5074528;28;20032;-80
2021/03/22 10:26:29;;;;;;;0.30;0.30;;;;;;;11.61;59.08;97492.97;5074565;28;20053;-78
2021/03/22 10:29:16;;;;;;;2.00;1.85;;;;;;;11.56;59.01;97513.00;5067244;28;20087;-78
2021/03/22 10:31:42;;;;;;;17.05;10.07;;;;;;;10.25;64.04;97497.16;5054514;28;20507;-79
2021/03/22 10:34:20;;;;;;;14.10;10.18;;;;;;;10.70;61.64;97474.16;5071061;28;20041;-78
2021/03/22 10:36:45;;;;;;;15.10;7.65;;;;;;;10.55;62.29;97499.66;5054554;28;20040;-79
2021/03/22 10:39:40;;;;;;;1.70;1.48;;;;;;;10.02;65.10;97504.06;5054284;28;20033;-79
2021/03/22 10:42:30;;;;;;;0.57;0.57;;;;;;;10.26;64.15;97463.56;5055132;28;20033;-80
2021/03/22 10:44:57;;;;;;;0.30;0.30;;;;;;;11.00;62.91;97501.50;5054219;28;20029;-79
2021/03/22 10:47:28;;;;;;;1.63;0.60;;;;;;;10.69;62.43;97470.63;5054106;28;20029;-79
2021/03/22 10:49:53;;;;;;;0.50;0.50;;;;;;;10.79;61.98;97494.19;5071174;28;20033;-79
2021/03/22 10:52:25;;;;;;;4.85;0.55;;;;;;;10.63;63.57;97477.25;5054178;28;20035;-79
2021/03/22 10:54:51;;;;;;;0.82;0.82;;;;;;;10.82;62.82;97437.25;5053974;28;20033;-79
2021/03/22 10:57:27;;;;;;;1.98;1.88;;;;;;;11.07;61.07;97474.75;5053946;28;20121;-78
2021/03/22 11:00:00;;;;;;;11.60;2.17;;;;;;;10.53;63.80;97496.63;5065521;28;20034;-78
2021/03/22 11:02:30;;;;;;;3.47;0.65;;;;;;;10.80;62.30;97492.22;5073601;28;20039;-78
2021/03/22 11:04:57;;;;;;;1.30;1.08;;;;;;;11.16;61.58;97475.44;5074424;28;20090;-80
2021/03/22 11:07:26;;;;;;;0.55;0.55;;;;;;;11.35;60.14;97482.38;5073777;28;20028;-80
2021/03/22 11:10:24;;;;;;;0.52;0.52;;;;;;;11.29;60.41;97473.22;5073537;28;20025;-79
2021/03/22 11:12:51;;;;;;;0.35;0.35;;;;;;;10.63;62.45;97478.00;5073257;28;20063;-79
2021/03/22 11:15:19;;;;;;;1.85;0.40;;;;;;;10.56;63.26;97468.06;5073463;28;20489;-80
2021/03/22 11:17:47;;;;;;;0.98;0.98;;;;;;;10.64;62.98;97470.50;5073601;28;20039;-78
2021/03/22 11:20:15;;;;;;;2.72;2.53;;;;;;;10.33;62.35;97477.03;5073667;28;20039;-78
2021/03/22 11:22:43;;;;;;;1.20;1.20;;;;;;;10.22;63.85;97478.75;5073368;28;20032;-79
2021/03/22 11:25:34;;;;;;;0.30;0.30;;;;;;;10.06;64.28;97486.13;5073529;28;20037;-79
2021/03/22 11:28:02;;;;;;;0.47;0.47;;;;;;;8.97;66.84;97451.03;5073290;28;20032;-79
2021/03/22 11:30:34;;;;;;;1.45;1.35;;;;;;;9.06;68.56;97446.72;5073360;28;20115;-80
2021/03/22 11:33:00;;;;;;;0.68;0.68;;;;;;;9.55;67.49;97458.41;5073285;28;20032;-80
2021/03/22 11:35:29;;;;;;;2.05;0.57;;;;;;;9.34;66.61;97431.78;5069540;28;20100;-80
2021/03/22 11:37:59;;;;;;;0.30;0.30;;;;;;;9.50;66.70;97455.50;5070234;28;20029;-81
2021/03/22 11:40:28;;;;;;;4.57;1.65;;;;;;;9.75;67.27;97478.03;5053596;28;20039;-78
2021/03/22 11:43:03;;;;;;;0.68;0.68;;;;;;;9.65;66.45;97429.59;5053150;28;20032;-78
2021/03/22 11:45:36;;;;;;;3.28;1.98;;;;;;;9.89;66.23;97451.78;5053685;28;20025;-79
2021/03/22 11:48:03;;;;;;;3.05;2.67;;;;;;;9.93;67.26;97470.97;5053048;28;20029;-79
2021/03/22 11:50:38;;;;;;;10.48;9.52;;;;;;;9.13;69.19;97468.47;5052882;28;20037;-86
2021/03/22 11:53:08;;;;;;;3.72;3.38;;;;;;;9.63;68.28;97469.91;5053595;28;20451;-84
2021/03/22 11:55:41;;;;;;;1.98;1.88;;;;;;;9.54;69.13;97473.44;5054139;28;20029;-85
2021/03/22 11:58:26;;;;;;;1.92;1.80;;;;;;;9.49;68.93;97460.25;5053739;28;20029;-85
2021/03/22 12:00:52;;;;;;;2.28;2.08;;;;;;;9.28;69.41;97480.47;5053767;28;20090;-83
2021/03/22 12:03:31;;;;;;;3.25;2.75;;;;;;;9.08;69.00;97425.78;5052368;28;20068;-84
2021/03/22 12:06:13;;;;;;;9.15;7.03;;;;;;;9.49;69.15;97459.50;5069209;28;20033;-84
2021/03/22 12:08:49;;;;;;;4.63;3.22;;;;;;;9.21;69.13;97411.88;5052692;28;20116;-84
2021/03/22 12:11:18;;;;;;;1.88;1.77;;;;;;;9.37;69.11;97450.91;5053168;28;20545;-84
2021/03/22 12:13:48;;;;;;;5.28;3.08;;;;;;;8.97;70.49;97451.03;5052574;28;20021;-83
2021/03/22 12:16:22;;;;;;;1.08;1.08;;;;;;;7.83;74.24;97418.09;5052738;28;20032;-94
2021/03/22 12:18:51;;;;;;;6.13;2.70;;;;;;;8.06;75.60;97439.63;5069200;28;20045;-87
2021/03/22 12:21:17;;;;;;;3.28;2.78;;;;;;;7.87;76.33;97457.22;5068935;28;20037;-92
2021/03/22 12:23:43;;;;;;;0.73;0.73;;;;;;;8.06;76.21;97414.88;5052609;28;20416;-93
2021/03/22 12:26:13;;;;;;;3.45;3.15;;;;;;;8.80;73.47;97437.97;5069320;28;20078;-90
2021/03/22 12:29:04;;;;;;;4.82;4.43;;;;;;;9.23;72.15;97459.00;5055235;28;20075;-88
2021/03/22 12:31:34;;;;;;;6.00;5.50;;;;;;;8.56;73.52;97424.72;5036437;28;20042;-87
2021/03/22 12:34:04;;;;;;;8.77;6.82;;;;;;;8.31;74.18;97413.94;5072218;28;20146;-89
2021/03/22 12:36:31;;;;;;;2.50;2.13;;;;;;;8.90;73.50;97434.00;5073072;28;20052;-88
2021/03/22 12:38:56;;;;;;;19.10;9.10;;;;;;;9.01;72.19;97431.56;5072285;28;20036;-85
2021/03/22 12:41:28;;;;;;;6.72;5.30;;;;;;;9.26;71.19;97474.63;5072722;28;20024;-90
2021/03/22 12:43:54;;;;;;;22.92;4.80;;;;;;;8.71;70.68;97419.44;5073005;28;20456;-88
2021/03/22 12:46:19;;;;;;;6.18;5.57;;;;;;;8.33;70.68;97413.47;5072403;28;20052;-88
2021/03/22 12:48:45;;;;;;;20.45;7.97;;;;;;;8.40;72.73;97469.00;5073140;28;20021;-89
2021/03/22 12:51:10;;;;;;;9.73;6.40;;;;;;;7.29;73.22;97426.72;5072418;28;20047;-88
2021/03/22 12:53:36;;;;;;;6.25;5.10;;;;;;;7.24;73.64;97422.56;5072019;28;20506;-84
2021/03/22 12:56:02;;;;;;;7.35;6.15;;;;;;;6.99;74.88;97427.38;5072308;28;20020;-86
2021/03/22 12:58:27;;;;;;;9.63;7.30;;;;;;;7.20;75.66;97451.34;5071879;28;20489;-86
2021/03/22 13:00:55;;;;;;;0.90;0.88;;;;;;;7.09;75.30;97475.66;5072068;28;20472;-87
2021/03/22 13:03:24;;;;;;;7.88;7.13;;;;;;;6.63;77.68;97464.19;5072117;28;20043;-86
2021/03/22 13:05:53;;;;;;;4.68;4.28;;;;;;;6.01;78.27;97432.81;5071992;28;20036;-89
2021/03/22 13:08:19;;;;;;;5.75;3.28;;;;;;;6.06;79.79;97465.16;5072086;28;20021;-90
2021/03/22 13:10:44;;;;;;;0.30;0.30;;;;;;;6.00;80.48;97462.19;5071799;28;20086;-86
2021/03/22 13:13:10;;;;;;;1.52;1.17;;;;;;;6.59;79.48;97506.69;5071380;28;20029;-84
2021/03/22 13:15:35;;;;;;;0.60;0.60;;;;;;;6.51;80.34;97460.25;5073888;28;20053;-83
2021/03/22 13:18:05;;;;;;;1.70;1.52;;;;;;;6.54;79.23;97494.28;5075783;28;20103;-83
2021/03/22 13:20:31;;;;;;;0.98;0.98;;;;;;;6.67;78.74;97497.03;5072241;28;20041;-81
2021/03/22 13:22:56;;;;;;;0.98;0.98;;;;;;;6.58;79.23;97463.97;5072332;28;20029;-81
2021/03/22 13:25:24;;;;;;;0.20;0.20;;;;;;;6.72;78.74;97469.03;5055795;28;20480;-86
2021/03/22 13:27:51;;;;;;;0.80;0.77;;;;;;;6.33;79.33;97457.28;5054185;28;20029;-85
2021/03/22 13:30:21;;;;;;;0.50;0.50;;;;;;;6.21;79.73;97418.91;5055532;28;20052;-86
2021/03/22 13:32:47;;;;;;;0.50;0.50;;;;;;;6.19;78.62;97454.97;5072403;28;20029;-84
2021/03/22 13:35:25;;;;;;;0.20;0.20;;;;;;;6.42;76.90;97479.34;5072081;28;20638;-86
2021/03/22 13:37:51;;;;;;;0.20;0.20;;;;;;;6.10;77.75;97507.72;5054622;28;20038;-85
2021/03/22 13:40:18;;;;;;;0.50;0.50;;;;;;;5.80;78.27;97488.19;5055524;28;20032;-89
2021/03/22 13:42:44;;;;;;;0.35;0.35;;;;;;;5.88;79.54;97481.34;5055495;28;20036;-87
2021/03/22 13:45:28;;;;;;;0.30;0.30;;;;;;;5.83;81.01;97498.31;5055320;28;20029;-87
2021/03/22 13:47:56;;;;;;;0.20;0.20;;;;;;;5.29;79.74;97482.53;5055386;28;20056;-88
2021/03/22 13:50:22;;;;;;;0.20;0.20;;;;;;;5.04;81.66;97471.44;5072211;28;20032;-88
2021/03/22 13:52:59;;;;;;;0.20;0.20;;;;;;;4.94;80.17;97500.63;5054032;28;20117;-88
2021/03/22 13:55:24;;;;;;;0.50;0.50;;;;;;;4.85;81.86;97490.25;5071566;28;20056;-87
2021/03/22 13:57:50;;;;;;;0.20;0.20;;;;;;;5.20;84.39;97518.72;5054881;28;20021;-88
2021/03/22 14:00:16;;;;;;;0.43;0.43;;;;;;;5.33;82.40;97505.09;5054900;28;20035;-88
2021/03/22 14:02:42;;;;;;;0.20;0.20;;;;;;;5.44;81.28;97483.69;5054859;28;20036;-86
2021/03/22 14:05:21;;;;;;;0.50;0.50;;;;;;;5.63;77.52;97507.44;5054767;28;20054;-86
2021/03/22 14:07:47;;;;;;;1.13;1.05;;;;;;;5.94;79.13;97542.66;5054728;28;20481;-86
2021/03/22 14:10:14;;;;;;;1.00;1.00;;;;;;;5.94;77.97;97510.53;5054779;28;20036;-88
2021/03/22 14:12:40;;;;;;;0.40;0.40;;;;;;;6.32;77.85;97551.78;5054841;28;20040;-87
2021/03/22 14:15:10;;;;;;;0.40;0.40;;;;;;;5.77;76.73;97508.25;5054528;28;20064;-86
2021/03/22 14:17:36;;;;;;;0.30;0.30;;;;;;;5.68;76.76;97555.47;5054775;28;20028;-87
2021/03/22 14:20:02;;;;;;;0.20;0.20;;;;;;;5.80;78.30;97562.97;5054536;28;20037;-87
2021/03/22 14:22:28;;;;;;;0.95;0.95;;;;;;;5.79;78.83;97546.97;5054197;28;20119;-86